Flight Track Log - Related Links

Times and Time Zones

All times are in EDT time to prevent confusion due to time zone crossing. See the N306PC flight status page for this flight to view local times or setup timezone preferences in your user account.

Time Position Orientation Groundspeed Altitude Reporting Facility
EDT Latitude Longitude Course Direction KTS MPH feet Rate Location/Type
Fri 01:20:24 PM 40.9894 -80.6256 41° Northeast 175 201 2,400  Level Cleveland Center
Fri 01:21:27 PM 41.0181 -80.5931 41° Northeast 167 192 3,900 1,440 Climbing Cleveland Center
Fri 01:22:29 PM 41.0367 -80.5319 68° East 174 200 5,400 1,403 Climbing Cleveland Center
Fri 01:23:31 PM 41.0544 -80.4731 68° East 174 200 6,800 1,258 Climbing Cleveland Center
Fri 01:24:33 PM 41.0742 -80.4111 67° East 177 204 8,000 1,113 Climbing Cleveland Center
Fri 01:25:35 PM 41.0942 -80.3469 68° East 184 212 9,100 1,210 Climbing Cleveland Center
Fri 01:26:37 PM 41.1192 -80.2669 67° East 192 221 10,500 1,258 Climbing Cleveland Center
Fri 01:27:39 PM 41.1394 -80.2003 68° East 192 221 11,700 1,056 Climbing Cleveland Center
Fri 01:28:42 PM 41.1608 -80.1306 68° East 201 231 12,700 960 Climbing Cleveland Center
Fri 01:29:44 PM 41.1819 -80.0589 69° East 205 236 13,700 1,016 Climbing Cleveland Center
Fri 01:30:46 PM 41.2050 -79.9758 70° East 210 242 14,800 919 Climbing Cleveland Center
Fri 01:31:48 PM 41.2258 -79.9014 70° East 213 245 15,600 726 Climbing Cleveland Center
Fri 01:32:50 PM 41.2475 -79.8267 69° East 215 247 16,300 677 Climbing Cleveland Center
Fri 01:33:52 PM 41.2686 -79.7511 70° East 217 250 17,000 677 Climbing Cleveland Center
Fri 01:34:54 PM 41.2944 -79.6578 70° East 221 254 17,700 629 Climbing Cleveland Center
Fri 01:35:56 PM 41.3142 -79.5883 69° East 221 254 18,300 581 Climbing Cleveland Center
Fri 01:36:58 PM 41.3361 -79.5106 69° East 222 255 18,900 576 Climbing Cleveland Center
Fri 01:38:01 PM 41.3578 -79.4314 70° East 224 258 19,500 528 Climbing Cleveland Center
Fri 01:39:03 PM 41.3839 -79.3358 70° East 225 259 20,000 484 Climbing Cleveland Center
Fri 01:40:05 PM 41.4094 -79.2467 69° East 237 273 20,500 532 Climbing Cleveland Center
Fri 01:41:07 PM 41.4322 -79.1611 70° East 243 280 21,100 581 Climbing Cleveland Center
Fri 01:42:09 PM 41.4542 -79.0800 70° East 238 274 21,700 532 Climbing Cleveland Center
Fri 01:43:11 PM 41.4767 -78.9992 70° East 235 270 22,200 484 Climbing Cleveland Center
Fri 01:44:13 PM 41.4986 -78.9169 70° East 235 270 22,700 435 Climbing Cleveland Center
Fri 01:45:15 PM 41.5211 -78.8356 70° East 235 270 23,100 432 Climbing Cleveland Center
Fri 01:46:18 PM 41.5478 -78.7350 70° East 236 272 23,600 384 Climbing Cleveland Center
Fri 01:47:20 PM 41.5703 -78.6503 70° East 239 275 23,900 290 Climbing Cleveland Center
Fri 01:48:22 PM 41.5942 -78.5656 69° East 242 278 24,200 290 Climbing Cleveland Center
Fri 01:49:24 PM 41.6164 -78.4811 71° East 242 278 24,500 339 Climbing Cleveland Center
Fri 01:50:26 PM 41.6389 -78.3931 71° East 247 284 24,900 242 Climbing Cleveland Center
Fri 01:51:28 PM 41.6675 -78.2886 70° East 249 287 25,000 48 Climbing Cleveland Center
Fri 01:52:30 PM 41.6917 -78.1958 71° East 259 298 25,000  Level Cleveland Center
Fri 01:53:32 PM 41.7167 -78.1011 70° East 267 307 25,000  Level Cleveland Center
Fri 01:54:35 PM 41.7417 -78.0047 71° East 275 316 25,000  Level Cleveland Center
Fri 01:55:37 PM 41.7672 -77.9086 70° East 275 316 25,000  Level Cleveland Center
Fri 01:56:39 PM 41.7964 -77.7919 71° East 275 316 25,000  Level Cleveland Center
Fri 01:57:41 PM 41.8214 -77.6961 71° East 275 316 25,000  Level Cleveland Center
Fri 01:58:43 PM 41.8456 -77.5997 71° East 275 316 25,000  Level Cleveland Center
Fri 01:59:45 PM 41.8703 -77.5064 70° East 269 310 25,000  Level Cleveland Center
Fri 02:00:47 PM 41.8975 -77.4053 70° East 270 311 25,000  Level Cleveland Center
Fri 02:01:49 PM 41.9214 -77.3094 71° East 270 311 25,000  Level Cleveland Center
Fri 02:02:52 PM 41.9456 -77.2133 71° East 271 312 25,000  Level Cleveland Center
Fri 02:03:54 PM 41.9747 -77.0964 71° East 273 314 25,000  Level Cleveland Center
Fri 02:04:56 PM 41.9986 -77.0000 72° East 273 314 25,000  Level Cleveland Center
Fri 02:05:58 PM 42.0228 -76.9025 72° East 274 315 25,000  Level Cleveland Center
Fri 02:07:00 PM 42.0475 -76.8069 71° East 275 316 25,000  Level Cleveland Center
Fri 02:08:02 PM 42.0714 -76.7086 72° East 275 316 25,000  Level Cleveland Center
Fri 02:09:04 PM 42.1008 -76.5919 71° East 275 316 25,000  Level Cleveland Center
Fri 02:10:06 PM 42.1250 -76.4956 71° East 275 316 25,000  Level Cleveland Center
Fri 02:12:33 PM 42.1797 -76.2714 72° East 272 313 25,000  Level Boston Center
Fri 02:13:37 PM 42.2042 -76.1742 71° East 272 313 25,000  Level Boston Center
Fri 02:14:37 PM 42.2269 -76.0764 73° East 273 314 25,000  Level Boston Center
Fri 02:15:38 PM 42.2542 -75.9597 72° East 273 314 25,000  Level Boston Center
Fri 02:16:41 PM 42.2789 -75.8614 71° East 274 315 25,000  Level Boston Center
Fri 02:17:42 PM 42.3022 -75.7644 72° East 274 315 25,000  Level Boston Center
Fri 02:18:42 PM 42.3300 -75.6706 68° East 272 313 25,000  Level Boston Center
Fri 02:19:47 PM 42.3553 -75.5739 70° East 272 313 25,000  Level Boston Center
Fri 02:20:47 PM 42.3814 -75.4781 70° East 272 313 25,000  Level Boston Center
Fri 02:21:48 PM 42.4078 -75.3811 70° East 273 314 25,000  Level Boston Center
Fri 02:22:49 PM 42.4400 -75.2656 69° East 273 314 25,000  Level Boston Center
Fri 02:23:53 PM 42.4656 -75.1700 70° East 273 314 25,000  Level Boston Center
Fri 02:24:54 PM 42.4914 -75.0728 70° East 273 314 25,000  Level Boston Center
Fri 02:25:55 PM 42.5167 -74.9781 70° East 272 313 25,000  Level Boston Center
Fri 02:26:58 PM 42.5428 -74.8819 70° East 271 312 25,000  Level Boston Center
Fri 02:27:59 PM 42.5708 -74.7744 70° East 268 308 25,000  Level Boston Center
Fri 02:29:02 PM 42.5958 -74.6803 70° East 268 308 25,000  Level Boston Center
Fri 02:30:03 PM 42.6217 -74.5828 70° East 270 311 25,000  Level Boston Center
Fri 02:31:03 PM 42.6472 -74.4858 70° East 270 311 25,000  Level Boston Center
Fri 02:32:07 PM 42.6728 -74.3903 70° East 270 311 25,000  Level Boston Center
Fri 02:33:09 PM 42.6972 -74.2944 71° East 270 311 25,000  Level Boston Center
Fri 02:34:09 PM 42.7208 -74.1997 71° East 270 311 25,000  Level Boston Center
Fri 02:35:10 PM 42.7511 -74.0867 70° East 268 308 25,000  Level Boston Center
Fri 02:36:13 PM 42.7758 -73.9906 71° East 268 308 25,000  Level Boston Center
Fri 02:37:14 PM 42.7997 -73.8964 71° East 267 307 25,000  Level Boston Center
Fri 02:38:18 PM 42.8244 -73.8000 71° East 266 306 25,000  Level Boston Center
Fri 02:39:18 PM 42.8478 -73.7042 72° East 269 310 25,000  Level Boston Center
Fri 02:40:21 PM 42.8731 -73.6067 70° East 269 310 25,000  Level Boston Center
Fri 02:41:22 PM 42.8978 -73.5114 70° East 269 310 25,000 -50 Level Boston Center
Fri 02:42:22 PM 42.9217 -73.4156 71° East 269 310 24,900 -336 Descending Boston Center
Fri 02:43:27 PM 42.9514 -73.2967 71° East 274 315 24,300 -432 Descending Boston Center
Fri 02:44:27 PM 42.9772 -73.1931 71° East 283 326 24,000 -146 Descending Boston Center
Fri 02:45:30 PM 43.0019 -73.0944 71° East 279 321 24,000  Level Boston Center
Fri 02:46:31 PM 43.0247 -72.9989 72° East 271 312 24,000 -194 Level Boston Center
Fri 02:47:34 PM 43.0508 -72.8936 71° East 267 307 23,600 -435 Descending Boston Center
Fri 02:48:35 PM 43.0756 -72.7961 71° East 268 308 23,100 -541 Descending Boston Center
Fri 02:49:36 PM 43.1006 -72.6906 72° East 287 330 22,500 -629 Descending Boston Center
Fri 02:50:39 PM 43.1281 -72.5783 71° East 296 341 21,800 -780 Descending Boston Center
Fri 02:51:39 PM 43.1550 -72.4650 72° East 296 341 20,900 -919 Descending Boston Center
Fri 02:52:43 PM 43.1814 -72.3572 71° East 296 341 19,900 -1,016 Descending Boston Center
Fri 02:53:43 PM 43.2094 -72.2419 71° East 297 342 18,800 -919 Descending Boston Center
Fri 02:54:47 PM 43.2344 -72.1358 72° East 296 341 18,000 -823 Descending Boston Center
Fri 02:55:47 PM 43.2606 -72.0211 73° East 294 338 17,100 -850 Descending Boston Center
Fri 02:56:47 PM 43.2861 -71.9153 72° East 294 338 16,300 -774 Descending Boston Center
Fri 02:57:51 PM 43.3100 -71.8108 73° East 292 336 15,500 -816 Descending Boston Center
Fri 02:58:52 PM 43.3347 -71.7017 73° East 282 325 14,600 -823 Descending Boston Center
Fri 02:59:55 PM 43.3597 -71.5978 72° East 282 325 13,800 -816 Descending Boston Center
Fri 03:00:57 PM 43.3847 -71.4856 73° East 283 326 12,900 -829 Descending Boston Center
Fri 03:01:58 PM 43.4092 -71.3800 72° East 286 329 12,100 -793 Descending Boston Center
Fri 03:02:58 PM 43.4314 -71.2819 73° East 273 314 11,300 -488 Descending Boston Center
Fri 03:04:01 PM 43.4539 -71.1836 72° East 256 295 11,100 -97 Descending Boston Center
Fri 03:05:02 PM 43.4772 -71.0933 70° East 253 291 11,100  Level Boston Center
Fri 03:06:05 PM 43.5014 -70.9992 70° East 256 295 11,100 -192 Level Boston Center
Fri 03:07:07 PM 43.5275 -70.9019 70° East 254 292 10,700 -639 Descending Boston Center
Fri 03:08:07 PM 43.5219 -70.8189 95° East 226 260 9,800 -919 Descending Boston Center
Fri 03:09:11 PM 43.5156 -70.7369 96° East 218 251 8,800 -1,008 Descending Boston Center
Fri 03:10:12 PM 43.5111 -70.6558 94° East 200 230 7,700 -1,033 Descending Boston Center
Fri 03:11:13 PM 43.5153 -70.5822 86° East 193 222 6,700 -992 Descending Boston Center
Fri 03:12:13 PM 43.5178 -70.5008 88° East 209 241 5,700 -774 Descending Boston Center
Fri 03:13:17 PM 43.5194 -70.4100 89° East 216 249 5,100 -581 Descending Boston Center
Fri 03:14:17 PM 43.5208 -70.3247 89° East 220 253 4,500 -726 Descending Boston Center
Fri 03:15:21 PM 43.5433 -70.2417 69° East 221 254 3,600 -912 Descending Boston Center
Fri 03:16:22 PM 43.5692 -70.1756 62° Northeast 200 230 2,600 -787 Descending Boston Center
Fri 03:17:23 PM 43.6094 -70.1375 34° Northeast 202 232 2,000 -443 Descending Boston Center
Fri 03:18:24 PM 43.6403 -70.1881 310° West 199 229 1,700 -339 Descending Boston Center
Fri 03:19:27 PM 43.6528 -70.2283 293° West 113 130 1,300 -384 Descending Boston Center
Fri 03:20:29 PM 43.6414 -70.2675 248° West 121 139 900 -541 Descending Boston Center
Fri 03:21:29 PM 43.6442 -70.3061 276° West 104 120 200 -700 Descending Boston Center
Fri 03:23:00 PM 43.6456 -70.3086 272° West  Level Estimated
Fri 03:30:00 PM 43.6456 -70.3086 101° East  Level Estimated

Login

Don't have an account? Register now (free) for customized features, flight alerts, and more!